Time;durP1;ratioP1;P1;durP2;ratioP2;P2;SDS_P1;SDS_P2;PMS_P1;PMS_P2;Temp;Humidity;BMP_temperature;BMP_pressure;BME280_temperature;BME280_humidity;BME280_pressure;Samples;Min_cycle;Max_cycle;Signal;HPM_P1;HPM_P2
2023/10/20 00:00:59;;;;;;;14.73;10.70;;;;;;;14.97;100.00;98109.25;5056968;28;20037;-62
2023/10/20 00:03:24;;;;;;;15.02;10.32;;;;;;;14.96;100.00;98123.19;5058093;28;20036;-62
2023/10/20 00:05:50;;;;;;;17.77;11.75;;;;;;;15.02;100.00;98117.56;5059248;28;20033;-63
2023/10/20 00:08:15;;;;;;;17.50;12.25;;;;;;;15.06;100.00;98107.78;5058043;28;20155;-62
2023/10/20 00:10:41;;;;;;;19.85;12.57;;;;;;;15.09;100.00;98104.97;5033936;28;20543;-62
2023/10/20 00:13:06;;;;;;;17.50;13.15;;;;;;;15.11;100.00;98090.09;5053722;28;20048;-63
2023/10/20 00:15:33;;;;;;;17.70;12.45;;;;;;;15.09;100.00;98089.38;5057626;28;20075;-63
2023/10/20 00:17:59;;;;;;;21.45;13.55;;;;;;;15.10;100.00;98088.44;5033564;28;20036;-63
2023/10/20 00:20:24;;;;;;;20.27;13.95;;;;;;;15.11;100.00;98097.91;5052757;28;20510;-63
2023/10/20 00:22:50;;;;;;;21.88;14.68;;;;;;;15.12;100.00;98083.97;5051515;28;20443;-63
2023/10/20 00:25:16;;;;;;;19.00;13.98;;;;;;;15.14;100.00;98077.69;5051565;28;20404;-63
2023/10/20 00:27:42;;;;;;;19.90;13.10;;;;;;;15.12;100.00;98079.59;5054196;28;20090;-63
2023/10/20 00:30:09;;;;;;;20.55;13.80;;;;;;;15.11;100.00;98077.91;5054286;28;20050;-63
2023/10/20 00:32:36;;;;;;;20.73;13.95;;;;;;;15.12;100.00;98069.19;5056835;28;20552;-63
2023/10/20 00:35:04;;;;;;;19.40;14.23;;;;;;;15.13;100.00;98064.81;5056122;28;20036;-63
2023/10/20 00:37:31;;;;;;;19.05;13.65;;;;;;;15.15;100.00;98065.53;5051524;28;20037;-63
2023/10/20 00:39:57;;;;;;;22.15;15.02;;;;;;;15.14;100.00;98064.69;5040299;28;20086;-63
2023/10/20 00:42:22;;;;;;;21.30;14.10;;;;;;;15.15;100.00;98060.31;5050942;28;20135;-63
2023/10/20 00:44:48;;;;;;;21.63;14.85;;;;;;;15.14;100.00;98045.66;5055480;28;20035;-63
2023/10/20 00:47:14;;;;;;;20.35;13.77;;;;;;;15.13;100.00;98044.84;5056241;28;20040;-63
2023/10/20 00:49:40;;;;;;;21.13;15.05;;;;;;;15.14;100.00;98030.03;5054459;28;20029;-64
2023/10/20 00:52:07;;;;;;;25.08;15.32;;;;;;;15.16;100.00;98020.38;5055087;28;20711;-64
2023/10/20 00:54:33;;;;;;;21.70;14.82;;;;;;;15.18;100.00;98018.47;5051252;28;20180;-64
2023/10/20 00:56:59;;;;;;;21.88;14.52;;;;;;;15.18;100.00;98014.13;5057112;28;20116;-64
2023/10/20 00:59:24;;;;;;;24.83;15.40;;;;;;;15.19;100.00;97996.75;5056059;28;20036;-64
2023/10/20 01:01:49;;;;;;;25.20;15.10;;;;;;;15.20;100.00;97996.63;5056838;28;20538;-63
2023/10/20 01:04:15;;;;;;;25.85;15.18;;;;;;;15.21;100.00;98000.88;5054754;28;20037;-64
2023/10/20 01:06:43;;;;;;;21.25;13.82;;;;;;;15.20;100.00;97987.97;5052246;28;20048;-64
2023/10/20 01:09:10;;;;;;;20.92;14.32;;;;;;;15.22;100.00;97991.31;5052809;28;20037;-63
2023/10/20 01:11:36;;;;;;;20.98;14.40;;;;;;;15.23;100.00;97985.16;5055362;28;20037;-64
2023/10/20 01:14:02;;;;;;;21.23;14.52;;;;;;;15.24;100.00;97986.81;5054954;28;20075;-64
2023/10/20 01:16:28;;;;;;;21.73;14.07;;;;;;;15.24;100.00;97997.22;5053850;28;20127;-64
2023/10/20 01:18:53;;;;;;;19.80;13.73;;;;;;;15.28;100.00;98000.44;5057387;28;20040;-63
2023/10/20 01:21:19;;;;;;;21.30;14.57;;;;;;;15.26;100.00;98003.16;5056160;28;20830;-63
2023/10/20 01:23:44;;;;;;;23.00;14.52;;;;;;;15.30;100.00;98004.59;5035038;28;20032;-63
2023/10/20 01:26:10;;;;;;;21.30;12.32;;;;;;;15.30;100.00;97995.97;5055644;28;20037;-63
2023/10/20 01:28:35;;;;;;;18.73;12.35;;;;;;;15.32;100.00;97996.66;5053766;28;20808;-63
2023/10/20 01:31:01;;;;;;;22.25;13.07;;;;;;;15.36;100.00;97996.38;5058995;28;20044;-63
2023/10/20 01:33:26;;;;;;;17.98;12.93;;;;;;;15.37;100.00;97987.63;5074548;28;20038;-63
2023/10/20 01:35:52;;;;;;;21.95;13.48;;;;;;;15.35;100.00;97986.03;5072815;28;20499;-64
2023/10/20 01:38:17;;;;;;;19.33;12.50;;;;;;;15.37;100.00;97985.03;5048166;28;20071;-64
2023/10/20 01:40:45;;;;;;;20.10;12.82;;;;;;;15.37;100.00;97986.78;5058339;28;20032;-63
2023/10/20 01:43:10;;;;;;;18.13;12.93;;;;;;;15.37;100.00;97971.16;5054196;28;20041;-64
2023/10/20 01:45:35;;;;;;;19.58;13.02;;;;;;;15.38;100.00;97970.22;5058854;28;20052;-66
2023/10/20 01:48:01;;;;;;;17.67;12.55;;;;;;;15.38;100.00;97965.00;5053090;28;20495;-65
2023/10/20 01:50:26;;;;;;;19.25;13.05;;;;;;;15.38;100.00;97965.00;5038072;28;20099;-64
2023/10/20 01:52:52;;;;;;;19.45;13.13;;;;;;;15.36;100.00;97962.53;5055796;28;20028;-64
2023/10/20 01:55:17;;;;;;;17.92;12.77;;;;;;;15.31;100.00;97954.22;5055583;28;20542;-65
2023/10/20 01:57:43;;;;;;;16.83;12.27;;;;;;;15.34;100.00;97942.75;5053899;28;20094;-65
2023/10/20 02:00:13;;;;;;;18.90;12.38;;;;;;;15.35;100.00;97934.00;5057362;28;20050;-64
2023/10/20 02:02:39;;;;;;;17.88;12.35;;;;;;;15.30;100.00;97929.13;5056233;28;20054;-64
2023/10/20 02:05:05;;;;;;;19.00;12.48;;;;;;;15.29;100.00;97921.41;5057064;28;20036;-64
2023/10/20 02:07:30;;;;;;;18.35;12.20;;;;;;;15.27;100.00;97908.53;5054243;28;20037;-64
2023/10/20 02:09:55;;;;;;;18.10;12.38;;;;;;;15.26;100.00;97906.88;5055439;28;20446;-64
2023/10/20 02:12:22;;;;;;;23.17;12.68;;;;;;;15.26;100.00;97893.00;5057724;28;20039;-64
2023/10/20 02:14:47;;;;;;;18.60;12.35;;;;;;;15.29;100.00;97888.44;5054992;28;20399;-64
2023/10/20 02:17:13;;;;;;;16.42;11.52;;;;;;;15.25;100.00;97889.63;5058594;28;20041;-64
2023/10/20 02:19:38;;;;;;;18.20;11.90;;;;;;;15.27;100.00;97881.69;5060834;28;20111;-64
2023/10/20 02:22:04;;;;;;;17.80;11.52;;;;;;;15.28;100.00;97883.34;5062106;28;20048;-64
2023/10/20 02:24:30;;;;;;;18.65;12.40;;;;;;;15.23;100.00;97871.50;5057673;28;20028;-64
2023/10/20 02:26:55;;;;;;;16.10;11.50;;;;;;;15.23;100.00;97870.66;5061439;28;20629;-64
2023/10/20 02:29:21;;;;;;;15.93;10.48;;;;;;;15.20;100.00;97863.91;5059708;28;20040;-64
2023/10/20 02:31:46;;;;;;;16.10;11.63;;;;;;;15.23;100.00;97855.03;5059135;28;20036;-64
2023/10/20 02:34:12;;;;;;;17.55;12.00;;;;;;;15.23;100.00;97852.44;5059535;28;20048;-64
2023/10/20 02:36:37;;;;;;;14.90;10.80;;;;;;;15.19;100.00;97841.47;5057191;28;20033;-64
2023/10/20 02:39:03;;;;;;;17.25;11.48;;;;;;;15.20;100.00;97829.25;5063285;28;20427;-64
2023/10/20 02:41:28;;;;;;;16.55;11.13;;;;;;;15.19;100.00;97849.25;5060486;28;20036;-64
2023/10/20 02:43:54;;;;;;;15.93;10.98;;;;;;;15.20;100.00;97840.50;5061235;28;20041;-65
2023/10/20 02:46:19;;;;;;;15.85;10.82;;;;;;;15.21;100.00;97826.56;5063791;28;20178;-65
2023/10/20 02:48:45;;;;;;;16.40;10.40;;;;;;;15.20;100.00;97817.06;5060396;28;20506;-64
2023/10/20 02:51:12;;;;;;;15.23;10.82;;;;;;;15.18;100.00;97816.38;5061792;28;20407;-64
2023/10/20 02:53:40;;;;;;;14.60;10.60;;;;;;;15.21;100.00;97813.53;5061319;28;20060;-65
2023/10/20 02:56:17;;;;;;;14.80;10.20;;;;;;;15.17;100.00;97806.88;5044975;28;20029;-64
2023/10/20 02:58:43;;;;;;;11.68;8.70;;;;;;;15.15;100.00;97807.94;5051320;28;20101;-64
2023/10/20 03:01:10;;;;;;;15.20;9.35;;;;;;;15.14;100.00;97811.47;5038378;28;20037;-64
2023/10/20 03:03:36;;;;;;;13.80;9.40;;;;;;;15.17;100.00;97801.69;5053775;28;20103;-65
2023/10/20 03:06:03;;;;;;;13.20;9.23;;;;;;;15.17;100.00;97790.44;5071771;28;20043;-65
2023/10/20 03:08:29;;;;;;;14.38;9.00;;;;;;;15.17;100.00;97775.66;5057396;28;20417;-64
2023/10/20 03:10:56;;;;;;;12.35;8.27;;;;;;;15.21;100.00;97763.25;5061755;28;20047;-64
2023/10/20 03:13:23;;;;;;;12.30;8.48;;;;;;;15.18;100.00;97755.69;5059468;28;20056;-64
2023/10/20 03:15:50;;;;;;;10.52;7.60;;;;;;;15.19;100.00;97745.19;5061185;28;20040;-64
2023/10/20 03:18:16;;;;;;;12.95;7.50;;;;;;;15.16;100.00;97745.41;5065995;28;20036;-64
2023/10/20 03:20:43;;;;;;;9.60;7.20;;;;;;;15.17;100.00;97743.63;5056929;28;20025;-65
2023/10/20 03:23:13;;;;;;;11.57;7.10;;;;;;;15.15;100.00;97737.72;5043202;28;20029;-65
2023/10/20 03:25:38;;;;;;;11.43;6.82;;;;;;;15.13;100.00;97739.59;5014816;28;20048;-65
2023/10/20 03:28:06;;;;;;;9.63;6.57;;;;;;;15.11;100.00;97744.06;5035191;28;20444;-65
2023/10/20 03:30:39;;;;;;;9.05;5.60;;;;;;;15.09;100.00;97739.00;5035795;28;20123;-65
2023/10/20 03:33:05;;;;;;;8.20;6.47;;;;;;;15.07;100.00;97735.69;5036861;28;20079;-65
2023/10/20 03:35:31;;;;;;;9.23;5.70;;;;;;;15.06;100.00;97731.41;5036736;28;20538;-65
2023/10/20 03:37:58;;;;;;;7.38;5.70;;;;;;;15.06;100.00;97738.38;5038520;28;20041;-64
2023/10/20 03:40:37;;;;;;;7.57;5.68;;;;;;;15.05;100.00;97744.53;5047852;28;20048;-64
2023/10/20 03:43:10;;;;;;;7.10;6.03;;;;;;;15.04;100.00;97742.88;5054805;28;20033;-65
2023/10/20 03:45:41;;;;;;;8.27;6.05;;;;;;;15.05;100.00;97729.75;5033531;28;20094;-65
2023/10/20 03:48:10;;;;;;;7.18;5.63;;;;;;;15.04;100.00;97720.31;5016946;28;20140;-65
2023/10/20 03:50:43;;;;;;;10.30;6.45;;;;;;;15.05;100.00;97724.56;5051068;28;20041;-65
2023/10/20 03:53:15;;;;;;;10.07;6.68;;;;;;;15.05;100.00;97705.50;5055036;28;20040;-65
2023/10/20 03:55:40;;;;;;;9.32;6.63;;;;;;;15.07;100.00;97688.03;5038839;28;20035;-65
2023/10/20 03:58:05;;;;;;;8.30;6.22;;;;;;;15.06;100.00;97683.75;5054161;28;20036;-65
2023/10/20 04:00:33;;;;;;;10.38;7.47;;;;;;;15.06;100.00;97687.19;5056330;28;20036;-67
2023/10/20 04:02:59;;;;;;;8.15;6.55;;;;;;;15.07;100.00;97685.44;5057045;28;20029;-67
2023/10/20 04:05:25;;;;;;;10.52;6.82;;;;;;;15.06;100.00;97684.59;5050410;28;20102;-67
2023/10/20 04:07:51;;;;;;;11.82;7.18;;;;;;;15.07;100.00;97672.44;5056311;28;20142;-66
2023/10/20 04:10:20;;;;;;;12.55;7.93;;;;;;;15.08;100.00;97663.66;5054094;28;20690;-67
2023/10/20 04:12:46;;;;;;;12.15;7.38;;;;;;;15.08;100.00;97661.88;5052989;28;20052;-67
2023/10/20 04:15:15;;;;;;;11.57;8.20;;;;;;;15.10;100.00;97654.81;5056152;28;20147;-68
2023/10/20 04:17:54;;;;;;;13.55;9.15;;;;;;;15.13;100.00;97638.97;5032263;28;20049;-68
2023/10/20 04:20:20;;;;;;;13.02;9.60;;;;;;;15.13;100.00;97625.97;5048004;28;20061;-68
2023/10/20 04:22:50;;;;;;;12.90;9.38;;;;;;;15.14;100.00;97622.41;5048075;28;20032;-68
2023/10/20 04:25:20;;;;;;;15.65;9.73;;;;;;;15.15;100.00;97615.44;5035405;28;20048;-67
2023/10/20 04:27:57;;;;;;;14.27;9.85;;;;;;;15.16;100.00;97611.88;5062275;28;20070;-67
2023/10/20 05:02:57;;;;;;;13.07;9.30;;;;;;;15.10;100.00;97519.53;5054337;28;20044;-70
2023/10/20 05:08:16;;;;;;;15.00;9.43;;;;;;;15.13;100.00;97508.06;5057913;28;20131;-66
2023/10/20 05:10:43;;;;;;;12.38;8.90;;;;;;;15.12;100.00;97498.59;5057426;28;20047;-67
2023/10/20 05:13:08;;;;;;;15.20;10.35;;;;;;;15.12;100.00;97477.78;5053548;28;20036;-67
2023/10/20 05:15:38;;;;;;;15.00;9.13;;;;;;;15.12;100.00;97469.97;5049427;28;20040;-66
2023/10/20 05:18:05;;;;;;;12.98;8.68;;;;;;;15.11;100.00;97461.34;5033950;28;20033;-66
2023/10/20 05:20:31;;;;;;;13.50;9.00;;;;;;;15.10;100.00;97459.72;5051096;28;20113;-66
2023/10/20 05:22:58;;;;;;;15.95;8.57;;;;;;;15.09;100.00;97463.25;5055283;28;20033;-64
2023/10/20 05:25:24;;;;;;;17.35;8.70;;;;;;;15.08;100.00;97450.34;5056802;28;20041;-68
2023/10/20 05:27:49;;;;;;;12.77;8.18;;;;;;;15.08;100.00;97432.13;5058990;28;20051;-69
2023/10/20 05:30:15;;;;;;;14.10;8.50;;;;;;;15.09;100.00;97413.00;5059579;28;20093;-69
2023/10/20 05:32:40;;;;;;;15.02;8.05;;;;;;;15.09;100.00;97426.00;5055720;28;20035;-69
2023/10/20 05:35:09;;;;;;;14.50;7.88;;;;;;;15.08;100.00;97442.53;5053474;28;20036;-70
2023/10/20 05:37:35;;;;;;;13.15;7.82;;;;;;;15.07;100.00;97461.72;5052229;28;20120;-72
2023/10/20 05:40:00;;;;;;;14.55;7.60;;;;;;;15.08;100.00;97476.38;5058536;28;20040;-72
2023/10/20 05:42:26;;;;;;;13.10;7.57;;;;;;;15.06;100.00;97480.88;5055324;28;20046;-74
2023/10/20 05:45:10;;;;;;;14.60;8.00;;;;;;;15.05;100.00;97463.59;5043074;28;20103;-72
2023/10/20 05:47:39;;;;;;;13.05;8.13;;;;;;;15.05;100.00;97463.59;5054532;28;20845;-73
2023/10/20 05:50:05;;;;;;;12.52;8.63;;;;;;;15.04;100.00;97455.00;5059434;28;20036;-73
2023/10/20 05:52:31;;;;;;;11.60;7.68;;;;;;;15.04;100.00;97452.38;5055461;28;20072;-73
2023/10/20 05:54:57;;;;;;;10.98;7.38;;;;;;;15.04;100.00;97443.75;5058771;28;20477;-72
2023/10/20 05:57:23;;;;;;;14.73;7.63;;;;;;;15.03;100.00;97444.69;5054318;28;20040;-72
2023/10/20 05:59:48;;;;;;;11.00;7.57;;;;;;;15.03;100.00;97452.50;5043618;28;20029;-72
2023/10/20 06:02:14;;;;;;;11.02;7.55;;;;;;;15.02;100.00;97440.44;5059104;28;20044;-71
2023/10/20 06:04:39;;;;;;;9.93;7.10;;;;;;;15.02;100.00;97430.84;5061897;28;20043;-71
2023/10/20 06:07:05;;;;;;;9.70;6.38;;;;;;;15.01;100.00;97431.81;5062186;28;20043;-71
2023/10/20 06:09:30;;;;;;;7.93;6.18;;;;;;;15.02;100.00;97420.44;5055830;28;20461;-70
2023/10/20 06:11:56;;;;;;;8.23;6.13;;;;;;;15.01;100.00;97415.38;5041538;28;20047;-70
2023/10/20 06:14:23;;;;;;;9.48;7.03;;;;;;;15.01;100.00;97421.44;5048654;28;20053;-70
2023/10/20 06:16:49;;;;;;;9.90;6.95;;;;;;;15.00;100.00;97424.13;5052353;28;20052;-68
2023/10/20 06:19:15;;;;;;;8.48;6.00;;;;;;;14.99;100.00;97430.28;5055056;28;20032;-68
2023/10/20 06:21:42;;;;;;;9.15;6.15;;;;;;;14.99;100.00;97438.09;5060147;28;20052;-67
2023/10/20 06:24:09;;;;;;;9.45;5.72;;;;;;;14.99;100.00;97431.09;5056972;28;20043;-67
2023/10/20 06:26:35;;;;;;;8.63;5.88;;;;;;;14.99;100.00;97418.09;5055956;28;20543;-67
2023/10/20 06:29:01;;;;;;;9.52;5.40;;;;;;;15.01;100.00;97412.78;5052908;28;20083;-66
2023/10/20 06:31:28;;;;;;;8.85;6.38;;;;;;;15.00;100.00;97414.56;5054605;28;20105;-67
2023/10/20 06:34:09;;;;;;;9.57;6.45;;;;;;;15.00;100.00;97405.91;5059433;28;20044;-66
2023/10/20 06:36:37;;;;;;;10.35;7.65;;;;;;;15.00;100.00;97408.53;5054635;28;20574;-65
2023/10/20 06:39:03;;;;;;;8.95;6.38;;;;;;;14.99;100.00;97417.28;5057235;28;20049;-65
2023/10/20 06:41:29;;;;;;;6.85;5.95;;;;;;;14.99;100.00;97422.50;5058618;28;20037;-66
2023/10/20 06:43:55;;;;;;;10.23;7.00;;;;;;;14.98;100.00;97413.88;5056691;28;20068;-66
2023/10/20 06:46:21;;;;;;;8.48;6.55;;;;;;;14.98;100.00;97416.47;5056913;28;20051;-66
2023/10/20 06:48:47;;;;;;;9.90;6.50;;;;;;;14.99;100.00;97414.69;5056681;28;20043;-66
2023/10/20 06:51:13;;;;;;;11.13;7.22;;;;;;;14.98;100.00;97419.06;5034362;28;20052;-68
2023/10/20 06:53:39;;;;;;;11.82;7.22;;;;;;;14.98;100.00;97416.47;5055227;28;20490;-66
2023/10/20 06:56:05;;;;;;;8.85;6.30;;;;;;;14.98;100.00;97407.81;5049870;28;20033;-66
2023/10/20 06:58:31;;;;;;;10.43;6.95;;;;;;;14.96;100.00;97413.13;5055863;28;20040;-66
2023/10/20 07:00:56;;;;;;;9.82;6.75;;;;;;;14.96;100.00;97414.94;5055534;28;20086;-66
2023/10/20 07:03:22;;;;;;;11.43;7.30;;;;;;;14.96;100.00;97407.94;5052735;28;20036;-67
2023/10/20 07:05:47;;;;;;;11.18;6.88;;;;;;;14.95;100.00;97397.66;5053474;28;20156;-66
2023/10/20 07:08:13;;;;;;;9.90;7.20;;;;;;;14.97;100.00;97401.78;5056439;28;20044;-66
2023/10/20 07:10:39;;;;;;;9.90;7.20;;;;;;;14.95;100.00;97395.91;5048511;28;20037;-66
2023/10/20 07:13:10;;;;;;;9.30;7.13;;;;;;;14.96;100.00;97396.72;5053152;28;20032;-66
2023/10/20 07:15:36;;;;;;;12.70;7.95;;;;;;;14.94;100.00;97402.03;5055185;28;20032;-65
2023/10/20 07:18:03;;;;;;;13.07;8.52;;;;;;;14.95;100.00;97400.28;5054801;28;20097;-66
2023/10/20 07:20:30;;;;;;;12.25;8.10;;;;;;;14.95;100.00;97400.28;5057356;28;20044;-65
2023/10/20 07:22:56;;;;;;;11.77;7.55;;;;;;;14.97;100.00;97409.59;5051717;28;20044;-66
2023/10/20 07:25:21;;;;;;;10.60;8.13;;;;;;;14.96;100.00;97401.94;5056649;28;20036;-65
2023/10/20 07:27:47;;;;;;;13.15;8.48;;;;;;;14.97;100.00;97404.41;5063645;28;20072;-65
2023/10/20 07:30:12;;;;;;;13.20;8.27;;;;;;;14.97;100.00;97401.78;5055959;28;20032;-66
2023/10/20 07:32:38;;;;;;;17.85;13.00;;;;;;;14.97;100.00;97400.97;5061593;28;20086;-67
2023/10/20 07:35:04;;;;;;;16.95;12.27;;;;;;;14.98;100.00;97406.06;5057330;28;20359;-66
2023/10/20 07:37:31;;;;;;;15.95;10.23;;;;;;;14.99;100.00;97412.91;5042684;28;20086;-67
2023/10/20 07:39:57;;;;;;;11.85;9.25;;;;;;;15.02;100.00;97404.00;5059085;28;20739;-67
2023/10/20 07:42:22;;;;;;;18.38;9.55;;;;;;;14.99;100.00;97412.91;5055129;28;20087;-66
2023/10/20 07:44:48;;;;;;;11.95;8.98;;;;;;;15.01;100.00;97410.19;5057689;28;20028;-67
2023/10/20 07:47:13;;;;;;;14.05;9.75;;;;;;;15.01;100.00;97404.97;5058098;28;20744;-66
2023/10/20 07:49:39;;;;;;;12.43;8.38;;;;;;;14.99;100.00;97407.69;5057880;28;20106;-66
2023/10/20 07:52:05;;;;;;;10.98;9.05;;;;;;;15.00;100.00;97401.56;5055834;28;20537;-66
2023/10/20 07:54:30;;;;;;;13.70;9.07;;;;;;;15.03;100.00;97403.91;5057759;28;20035;-65
2023/10/20 07:56:56;;;;;;;14.93;9.50;;;;;;;15.02;100.00;97401.41;5060331;28;20023;-67
2023/10/20 07:59:22;;;;;;;14.35;9.57;;;;;;;15.04;100.00;97404.75;5017397;28;20814;-66
2023/10/20 08:01:47;;;;;;;12.95;9.25;;;;;;;15.08;100.00;97413.94;5050299;28;20151;-69
2023/10/20 08:04:12;;;;;;;16.75;11.55;;;;;;;15.10;100.00;97401.66;5056403;28;20517;-67
2023/10/20 08:06:38;;;;;;;12.85;9.65;;;;;;;15.10;100.00;97404.25;5057790;28;20093;-67
2023/10/20 08:09:04;;;;;;;12.23;8.48;;;;;;;15.12;100.00;97407.53;5061415;28;20056;-67
2023/10/20 08:11:30;;;;;;;14.20;9.57;;;;;;;15.13;100.00;97409.22;5014987;28;20044;-71
2023/10/20 08:13:55;;;;;;;13.25;10.07;;;;;;;15.15;100.00;97415.94;5034945;28;20052;-71
2023/10/20 08:16:24;;;;;;;15.30;10.35;;;;;;;15.16;100.00;97414.16;5036246;28;20396;-71
2023/10/20 08:18:51;;;;;;;14.98;9.60;;;;;;;15.18;100.00;97415.69;5020954;28;20714;-71
2023/10/20 08:21:16;;;;;;;15.27;10.05;;;;;;;15.18;100.00;97409.66;5055276;28;20068;-71
2023/10/20 08:23:43;;;;;;;17.77;11.63;;;;;;;15.19;100.00;97414.75;5036164;28;20121;-72
2023/10/20 08:26:19;;;;;;;17.80;11.43;;;;;;;15.22;100.00;97424.09;5016765;28;20041;-72
2023/10/20 08:28:45;;;;;;;15.57;12.15;;;;;;;15.21;100.00;97422.44;5035426;28;20096;-72
2023/10/20 08:31:16;;;;;;;17.80;12.23;;;;;;;15.23;100.00;97429.16;5040463;28;20131;-72
2023/10/20 08:33:42;;;;;;;16.23;11.25;;;;;;;15.28;100.00;97433.16;5039535;28;20040;-72
2023/10/20 08:36:12;;;;;;;16.30;12.30;;;;;;;15.31;100.00;97435.53;5054740;28;20051;-71
2023/10/20 08:38:40;;;;;;;16.75;11.80;;;;;;;15.31;100.00;97431.16;5056005;28;20566;-71
2023/10/20 08:41:21;;;;;;;14.38;10.02;;;;;;;15.27;100.00;97429.75;5055910;28;20040;-70
2023/10/20 08:43:48;;;;;;;34.75;25.48;;;;;;;15.27;100.00;97434.13;5053035;28;20903;-70
2023/10/20 08:46:15;;;;;;;18.52;13.95;;;;;;;15.25;100.00;97426.44;5059141;28;20052;-70
2023/10/20 08:48:42;;;;;;;17.35;12.98;;;;;;;15.26;100.00;97430.69;5059367;28;20114;-70
2023/10/20 08:51:10;;;;;;;20.55;12.85;;;;;;;15.26;100.00;97429.84;5040116;28;20045;-69
2023/10/20 08:53:36;;;;;;;19.90;12.63;;;;;;;15.26;100.00;97425.47;5021811;28;20492;-69
2023/10/20 08:56:06;;;;;;;19.17;13.23;;;;;;;15.29;100.00;97421.78;5043962;28;20048;-69
2023/10/20 08:58:33;;;;;;;19.15;13.75;;;;;;;15.31;100.00;97425.13;5050942;28;20048;-70
2023/10/20 09:00:59;;;;;;;40.70;31.55;;;;;;;15.30;100.00;97421.69;5051199;28;20574;-70
2023/10/20 09:03:40;;;;;;;32.00;23.20;;;;;;;15.30;100.00;97429.50;5043855;28;20041;-70
2023/10/20 09:06:08;;;;;;;47.22;34.20;;;;;;;15.32;100.00;97432.78;5064386;28;20035;-70
2023/10/20 09:08:34;;;;;;;50.75;36.30;;;;;;;15.31;100.00;97427.72;5038553;28;20156;-69
2023/10/20 09:10:59;;;;;;;45.70;32.40;;;;;;;15.30;100.00;97431.25;5048072;28;20130;-69
2023/10/20 09:13:37;;;;;;;44.28;32.58;;;;;;;15.32;100.00;97429.34;5046650;28;20039;-70
2023/10/20 09:16:08;;;;;;;40.95;29.17;;;;;;;15.32;100.00;97424.97;5043739;28;20037;-70
2023/10/20 09:18:53;;;;;;;37.53;28.52;;;;;;;15.38;100.00;97434.91;5040647;28;20049;-70
2023/10/20 09:21:21;;;;;;;37.80;24.83;;;;;;;15.39;100.00;97433.97;5040970;28;20067;-70
2023/10/20 09:24:45;;;;;;;23.35;16.85;;;;;;;15.44;100.00;97457.00;5040671;28;20445;-70
2023/10/20 09:27:11;;;;;;;18.85;13.13;;;;;;;15.41;100.00;97442.47;5031075;28;20041;-70
2023/10/20 09:29:37;;;;;;;24.02;17.17;;;;;;;15.38;100.00;97439.28;5037842;28;20099;-71
2023/10/20 09:32:04;;;;;;;29.65;22.65;;;;;;;15.36;100.00;97439.41;5034721;28;20151;-71
2023/10/20 09:34:30;;;;;;;25.75;20.52;;;;;;;15.46;100.00;97444.72;5050699;28;20602;-70
2023/10/20 09:36:56;;;;;;;27.05;20.40;;;;;;;15.46;100.00;97442.09;5051037;28;20037;-70
2023/10/20 09:39:38;;;;;;;20.60;15.95;;;;;;;15.48;100.00;97448.84;5039425;28;20030;-70
2023/10/20 09:42:05;;;;;;;19.45;13.13;;;;;;;15.45;100.00;97443.03;5038632;28;20028;-71
2023/10/20 09:44:42;;;;;;;20.45;14.10;;;;;;;15.42;100.00;97425.91;5036565;28;20056;-70
2023/10/20 09:47:19;;;;;;;26.92;16.20;;;;;;;15.36;100.00;97433.38;5040264;28;20044;-70
2023/10/20 09:49:45;;;;;;;23.92;18.05;;;;;;;15.40;100.00;97433.03;5040244;28;20044;-70
2023/10/20 09:52:10;;;;;;;20.48;14.48;;;;;;;15.41;100.00;97433.81;5040407;28;20049;-70
2023/10/20 09:54:36;;;;;;;15.63;12.38;;;;;;;15.40;100.00;97432.19;5038115;28;20036;-70
2023/10/20 09:57:06;;;;;;;15.32;12.18;;;;;;;15.41;100.00;97434.66;5036381;28;20043;-70
2023/10/20 09:59:31;;;;;;;18.08;12.80;;;;;;;15.45;100.00;97428.25;5040425;28;20033;-71
2023/10/20 10:01:59;;;;;;;14.77;11.07;;;;;;;15.47;100.00;97430.72;5059637;28;20044;-70
2023/10/20 10:04:33;;;;;;;15.82;12.02;;;;;;;15.52;100.00;97426.78;5036150;28;20123;-70
2023/10/20 10:07:06;;;;;;;17.92;12.90;;;;;;;15.47;100.00;97415.09;5058829;28;20044;-70
2023/10/20 10:09:36;;;;;;;15.30;11.70;;;;;;;15.47;100.00;97415.09;5058941;28;20071;-70
2023/10/20 10:12:10;;;;;;;20.35;14.80;;;;;;;15.44;100.00;97412.75;5038174;28;21369;-70
2023/10/20 10:14:36;;;;;;;18.77;12.00;;;;;;;15.51;100.00;97413.91;5055074;28;20051;-69
2023/10/20 10:17:08;;;;;;;16.83;12.13;;;;;;;15.54;100.00;97403.25;5064302;28;20040;-68
2023/10/20 10:19:34;;;;;;;18.08;12.93;;;;;;;15.60;100.00;97403.59;5054847;28;20110;-68
2023/10/20 10:22:01;;;;;;;13.75;10.65;;;;;;;15.62;100.00;97406.06;5056214;28;20418;-68
2023/10/20 10:24:31;;;;;;;15.02;10.75;;;;;;;15.63;100.00;97411.19;5051113;28;20025;-67
2023/10/20 10:27:06;;;;;;;12.45;10.00;;;;;;;15.69;100.00;97404.63;5059474;28;20131;-69
2023/10/20 10:29:50;;;;;;;15.65;11.77;;;;;;;15.80;100.00;97407.19;5064609;28;20048;-68
2023/10/20 10:32:20;;;;;;;16.88;11.45;;;;;;;15.86;100.00;97401.47;5059741;28;20044;-68
2023/10/20 10:34:47;;;;;;;16.08;10.57;;;;;;;15.87;100.00;97404.91;5063334;28;20034;-68
2023/10/20 10:37:15;;;;;;;16.77;11.43;;;;;;;15.83;100.00;97390.47;5065200;28;20036;-68
2023/10/20 10:39:41;;;;;;;21.58;15.02;;;;;;;15.78;100.00;97375.25;5060814;28;20043;-68
2023/10/20 10:42:06;;;;;;;24.10;17.58;;;;;;;15.71;100.00;97371.47;5060663;28;20024;-69
2023/10/20 10:44:36;;;;;;;29.63;19.52;;;;;;;15.72;100.00;97365.34;5062092;28;20037;-68
2023/10/20 10:47:04;;;;;;;39.83;25.67;;;;;;;15.66;100.00;97358.84;5061554;28;20055;-68
2023/10/20 10:49:31;;;;;;;25.60;17.98;;;;;;;15.68;100.00;97356.94;5058112;28;20056;-68
2023/10/20 10:51:57;;;;;;;20.98;14.38;;;;;;;15.73;100.00;97357.38;5043321;28;20063;-68
2023/10/20 10:54:24;;;;;;;14.35;9.85;;;;;;;15.71;100.00;97348.03;5060260;28;20403;-67
2023/10/20 10:56:50;;;;;;;14.45;10.20;;;;;;;15.68;100.00;97350.91;5056611;28;20025;-68
2023/10/20 10:59:15;;;;;;;14.15;10.10;;;;;;;15.71;100.00;97355.84;5056669;28;20043;-68
2023/10/20 11:01:42;;;;;;;16.75;11.10;;;;;;;15.74;100.00;97345.19;5037414;28;20040;-68
2023/10/20 11:04:10;;;;;;;18.15;11.55;;;;;;;15.75;100.00;97347.69;5032228;28;20126;-68
2023/10/20 11:06:38;;;;;;;16.60;12.15;;;;;;;15.83;100.00;97335.78;5038657;28;20507;-67
2023/10/20 11:09:10;;;;;;;15.43;11.30;;;;;;;15.95;100.00;97339.97;5061409;28;20039;-67
2023/10/20 11:11:41;;;;;;;13.68;10.30;;;;;;;16.03;100.00;97334.91;5057038;28;20873;-68
2023/10/20 11:14:06;;;;;;;17.60;11.25;;;;;;;16.17;100.00;97327.59;5037023;28;20037;-67
2023/10/20 11:16:36;;;;;;;13.80;10.80;;;;;;;16.37;100.00;97315.47;5037889;28;20136;-68
2023/10/20 11:19:02;;;;;;;15.68;9.63;;;;;;;16.41;100.00;97316.03;5046155;28;20123;-67
2023/10/20 11:21:28;;;;;;;14.43;9.63;;;;;;;16.34;100.00;97323.53;5055046;28;20036;-66
2023/10/20 11:23:56;;;;;;;15.68;9.93;;;;;;;16.38;100.00;97329.31;5033728;28;20040;-68
2023/10/20 11:26:24;;;;;;;15.80;9.45;;;;;;;16.32;100.00;97336.69;5056016;28;20101;-68
2023/10/20 11:28:50;;;;;;;11.75;7.50;;;;;;;16.18;100.00;97321.41;5058668;28;20028;-67
2023/10/20 11:31:16;;;;;;;12.43;7.82;;;;;;;16.21;100.00;97307.28;5047256;28;20114;-68
2023/10/20 11:33:41;;;;;;;8.98;7.28;;;;;;;16.26;100.00;97294.72;5032443;28;20037;-67
2023/10/20 11:36:07;;;;;;;11.85;8.02;;;;;;;16.29;100.00;97295.25;5038050;28;20041;-67
2023/10/20 11:38:32;;;;;;;12.90;8.32;;;;;;;16.37;100.00;97297.22;5055096;28;20040;-68
2023/10/20 11:40:59;;;;;;;10.32;8.00;;;;;;;16.37;100.00;97292.00;5039951;28;20045;-68
2023/10/20 11:43:25;;;;;;;15.05;9.93;;;;;;;16.38;100.00;97277.19;5035476;28;20068;-68
2023/10/20 11:45:50;;;;;;;10.73;8.68;;;;;;;16.51;100.00;97285.56;5018734;28;20724;-68
2023/10/20 11:48:16;;;;;;;12.25;8.52;;;;;;;16.50;100.00;97287.38;5038472;28;20037;-68
2023/10/20 11:50:41;;;;;;;12.00;9.65;;;;;;;16.40;100.00;97294.34;5034124;28;20095;-68